sensor_id;sensor_type;location;lat;lon;timestamp;P1;durP1;ratioP1;P2;durP2;ratioP2
35961;SDS011;22044;48.298;10.008;2023-05-10T00:00:23;2.63;;;2.43;;
35961;SDS011;22044;48.298;10.008;2023-05-10T00:03:13;2.40;;;2.20;;
35961;SDS011;22044;48.298;10.008;2023-05-10T00:05:59;4.03;;;2.37;;
35961;SDS011;22044;48.298;10.008;2023-05-10T00:08:45;2.40;;;2.20;;
35961;SDS011;22044;48.298;10.008;2023-05-10T00:11:30;2.37;;;2.17;;
35961;SDS011;22044;48.298;10.008;2023-05-10T00:14:16;4.03;;;2.23;;
35961;SDS011;22044;48.298;10.008;2023-05-10T00:17:02;2.50;;;2.30;;
35961;SDS011;22044;48.298;10.008;2023-05-10T00:19:49;2.43;;;2.30;;
35961;SDS011;22044;48.298;10.008;2023-05-10T00:22:34;1.63;;;1.53;;
35961;SDS011;22044;48.298;10.008;2023-05-10T00:25:20;2.10;;;2.00;;
35961;SDS011;22044;48.298;10.008;2023-05-10T00:28:06;2.00;;;1.90;;
35961;SDS011;22044;48.298;10.008;2023-05-10T00:30:52;2.70;;;2.17;;
35961;SDS011;22044;48.298;10.008;2023-05-10T00:33:37;1.67;;;1.57;;
35961;SDS011;22044;48.298;10.008;2023-05-10T00:36:24;2.00;;;1.80;;
35961;SDS011;22044;48.298;10.008;2023-05-10T00:39:11;2.03;;;1.80;;
35961;SDS011;22044;48.298;10.008;2023-05-10T00:41:57;2.27;;;2.00;;
35961;SDS011;22044;48.298;10.008;2023-05-10T00:44:44;2.93;;;1.80;;
35961;SDS011;22044;48.298;10.008;2023-05-10T00:47:30;2.97;;;1.83;;
35961;SDS011;22044;48.298;10.008;2023-05-10T00:50:17;1.93;;;1.83;;
35961;SDS011;22044;48.298;10.008;2023-05-10T00:53:04;2.30;;;1.60;;
35961;SDS011;22044;48.298;10.008;2023-05-10T00:55:49;1.63;;;1.53;;
35961;SDS011;22044;48.298;10.008;2023-05-10T00:58:35;1.87;;;1.70;;
35961;SDS011;22044;48.298;10.008;2023-05-10T01:01:21;2.03;;;1.93;;
35961;SDS011;22044;48.298;10.008;2023-05-10T01:04:08;3.27;;;1.50;;
35961;SDS011;22044;48.298;10.008;2023-05-10T01:06:56;2.87;;;1.77;;
35961;SDS011;22044;48.298;10.008;2023-05-10T01:09:43;2.20;;;2.00;;
35961;SDS011;22044;48.298;10.008;2023-05-10T01:12:29;1.80;;;1.70;;
35961;SDS011;22044;48.298;10.008;2023-05-10T01:15:15;1.43;;;1.33;;
35961;SDS011;22044;48.298;10.008;2023-05-10T01:18:02;1.60;;;1.50;;
35961;SDS011;22044;48.298;10.008;2023-05-10T01:20:48;3.77;;;1.33;;
35961;SDS011;22044;48.298;10.008;2023-05-10T01:23:46;3.53;;;1.43;;
35961;SDS011;22044;48.298;10.008;2023-05-10T01:33:56;1.50;;;1.10;;
35961;SDS011;22044;48.298;10.008;2023-05-10T01:36:48;2.93;;;1.13;;
35961;SDS011;22044;48.298;10.008;2023-05-10T01:39:36;1.30;;;1.20;;
35961;SDS011;22044;48.298;10.008;2023-05-10T01:42:28;1.57;;;1.00;;
35961;SDS011;22044;48.298;10.008;2023-05-10T01:45:24;1.33;;;1.00;;
35961;SDS011;22044;48.298;10.008;2023-05-10T01:48:14;1.10;;;0.93;;
35961;SDS011;22044;48.298;10.008;2023-05-10T01:51:02;1.17;;;1.07;;
35961;SDS011;22044;48.298;10.008;2023-05-10T01:53:49;1.50;;;0.90;;
35961;SDS011;22044;48.298;10.008;2023-05-10T01:56:39;1.17;;;0.80;;
35961;SDS011;22044;48.298;10.008;2023-05-10T01:59:27;4.40;;;0.93;;
35961;SDS011;22044;48.298;10.008;2023-05-10T02:02:20;2.77;;;1.10;;
35961;SDS011;22044;48.298;10.008;2023-05-10T02:05:06;1.10;;;1.00;;
35961;SDS011;22044;48.298;10.008;2023-05-10T02:07:54;1.10;;;0.90;;
35961;SDS011;22044;48.298;10.008;2023-05-10T02:10:41;1.33;;;0.87;;
35961;SDS011;22044;48.298;10.008;2023-05-10T02:13:28;0.80;;;0.80;;
35961;SDS011;22044;48.298;10.008;2023-05-10T02:16:16;1.00;;;0.90;;
35961;SDS011;22044;48.298;10.008;2023-05-10T02:19:03;4.47;;;1.00;;
35961;SDS011;22044;48.298;10.008;2023-05-10T02:21:49;1.10;;;1.00;;
35961;SDS011;22044;48.298;10.008;2023-05-10T02:24:37;2.53;;;0.90;;
35961;SDS011;22044;48.298;10.008;2023-05-10T02:27:24;1.70;;;0.77;;
35961;SDS011;22044;48.298;10.008;2023-05-10T02:30:12;0.80;;;0.80;;
35961;SDS011;22044;48.298;10.008;2023-05-10T02:32:58;1.03;;;0.93;;
35961;SDS011;22044;48.298;10.008;2023-05-10T02:35:45;1.00;;;0.90;;
35961;SDS011;22044;48.298;10.008;2023-05-10T02:38:31;0.70;;;0.70;;
35961;SDS011;22044;48.298;10.008;2023-05-10T02:41:20;1.90;;;0.60;;
35961;SDS011;22044;48.298;10.008;2023-05-10T02:44:07;0.40;;;0.40;;
35961;SDS011;22044;48.298;10.008;2023-05-10T02:46:54;0.63;;;0.40;;
35961;SDS011;22044;48.298;10.008;2023-05-10T02:49:40;0.40;;;0.40;;
35961;SDS011;22044;48.298;10.008;2023-05-10T02:52:28;2.20;;;0.50;;
35961;SDS011;22044;48.298;10.008;2023-05-10T02:55:21;0.30;;;0.30;;
35961;SDS011;22044;48.298;10.008;2023-05-10T02:58:11;1.57;;;0.40;;
35961;SDS011;22044;48.298;10.008;2023-05-10T03:00:57;0.47;;;0.40;;
35961;SDS011;22044;48.298;10.008;2023-05-10T03:03:44;0.93;;;0.70;;
35961;SDS011;22044;48.298;10.008;2023-05-10T03:06:30;0.40;;;0.40;;
35961;SDS011;22044;48.298;10.008;2023-05-10T03:09:15;0.87;;;0.60;;
35961;SDS011;22044;48.298;10.008;2023-05-10T03:12:02;0.73;;;0.60;;
35961;SDS011;22044;48.298;10.008;2023-05-10T03:14:56;0.70;;;0.57;;
35961;SDS011;22044;48.298;10.008;2023-05-10T03:17:51;0.40;;;0.40;;
35961;SDS011;22044;48.298;10.008;2023-05-10T03:20:41;1.07;;;0.53;;
35961;SDS011;22044;48.298;10.008;2023-05-10T03:23:30;1.07;;;0.63;;
35961;SDS011;22044;48.298;10.008;2023-05-10T03:26:20;1.00;;;0.50;;
35961;SDS011;22044;48.298;10.008;2023-05-10T03:29:16;1.17;;;0.50;;
35961;SDS011;22044;48.298;10.008;2023-05-10T03:32:04;3.27;;;0.60;;
35961;SDS011;22044;48.298;10.008;2023-05-10T03:34:50;0.40;;;0.40;;
35961;SDS011;22044;48.298;10.008;2023-05-10T03:37:35;0.57;;;0.57;;
35961;SDS011;22044;48.298;10.008;2023-05-10T03:40:21;0.60;;;0.60;;
35961;SDS011;22044;48.298;10.008;2023-05-10T03:43:07;0.43;;;0.43;;
35961;SDS011;22044;48.298;10.008;2023-05-10T03:45:53;0.50;;;0.50;;
35961;SDS011;22044;48.298;10.008;2023-05-10T03:48:40;0.63;;;0.63;;
35961;SDS011;22044;48.298;10.008;2023-05-10T03:51:25;1.00;;;0.60;;
35961;SDS011;22044;48.298;10.008;2023-05-10T03:54:11;0.70;;;0.70;;
35961;SDS011;22044;48.298;10.008;2023-05-10T03:56:58;0.60;;;0.60;;
35961;SDS011;22044;48.298;10.008;2023-05-10T03:59:45;1.83;;;0.70;;
35961;SDS011;22044;48.298;10.008;2023-05-10T04:02:31;1.03;;;0.70;;
35961;SDS011;22044;48.298;10.008;2023-05-10T04:05:19;0.73;;;0.60;;
35961;SDS011;22044;48.298;10.008;2023-05-10T04:08:04;10.83;;;1.77;;
35961;SDS011;22044;48.298;10.008;2023-05-10T04:10:50;1.70;;;0.70;;
35961;SDS011;22044;48.298;10.008;2023-05-10T04:13:36;1.00;;;0.70;;
35961;SDS011;22044;48.298;10.008;2023-05-10T04:16:22;0.70;;;0.70;;
35961;SDS011;22044;48.298;10.008;2023-05-10T04:19:07;0.80;;;0.70;;
35961;SDS011;22044;48.298;10.008;2023-05-10T04:21:54;2.00;;;0.70;;
35961;SDS011;22044;48.298;10.008;2023-05-10T04:24:40;0.60;;;0.60;;
35961;SDS011;22044;48.298;10.008;2023-05-10T04:27:26;0.77;;;0.77;;
35961;SDS011;22044;48.298;10.008;2023-05-10T04:30:12;0.77;;;0.77;;
35961;SDS011;22044;48.298;10.008;2023-05-10T04:32:57;0.80;;;0.80;;
35961;SDS011;22044;48.298;10.008;2023-05-10T04:35:42;1.77;;;0.60;;
35961;SDS011;22044;48.298;10.008;2023-05-10T04:38:30;0.70;;;0.70;;
35961;SDS011;22044;48.298;10.008;2023-05-10T04:41:15;0.70;;;0.70;;
35961;SDS011;22044;48.298;10.008;2023-05-10T04:44:01;2.13;;;0.70;;
35961;SDS011;22044;48.298;10.008;2023-05-10T04:46:47;0.70;;;0.70;;
35961;SDS011;22044;48.298;10.008;2023-05-10T04:49:32;2.60;;;0.80;;
35961;SDS011;22044;48.298;10.008;2023-05-10T04:52:18;0.70;;;0.70;;
35961;SDS011;22044;48.298;10.008;2023-05-10T04:55:05;1.37;;;0.80;;
35961;SDS011;22044;48.298;10.008;2023-05-10T04:57:53;0.67;;;0.67;;
35961;SDS011;22044;48.298;10.008;2023-05-10T05:00:40;0.80;;;0.70;;
35961;SDS011;22044;48.298;10.008;2023-05-10T05:03:26;4.77;;;1.00;;
35961;SDS011;22044;48.298;10.008;2023-05-10T05:06:12;1.53;;;0.80;;
35961;SDS011;22044;48.298;10.008;2023-05-10T05:08:59;0.70;;;0.70;;
35961;SDS011;22044;48.298;10.008;2023-05-10T05:11:46;0.90;;;0.90;;
35961;SDS011;22044;48.298;10.008;2023-05-10T05:14:32;0.77;;;0.77;;
35961;SDS011;22044;48.298;10.008;2023-05-10T05:17:18;0.80;;;0.80;;
35961;SDS011;22044;48.298;10.008;2023-05-10T05:20:04;1.43;;;0.90;;
35961;SDS011;22044;48.298;10.008;2023-05-10T05:22:50;0.80;;;0.80;;
35961;SDS011;22044;48.298;10.008;2023-05-10T05:25:36;1.83;;;0.90;;
35961;SDS011;22044;48.298;10.008;2023-05-10T05:28:23;2.10;;;0.80;;
35961;SDS011;22044;48.298;10.008;2023-05-10T05:31:09;1.10;;;1.00;;
35961;SDS011;22044;48.298;10.008;2023-05-10T05:33:54;3.10;;;0.90;;
35961;SDS011;22044;48.298;10.008;2023-05-10T05:36:40;0.90;;;0.90;;
35961;SDS011;22044;48.298;10.008;2023-05-10T05:39:25;1.07;;;0.90;;
35961;SDS011;22044;48.298;10.008;2023-05-10T05:42:11;1.07;;;1.00;;
35961;SDS011;22044;48.298;10.008;2023-05-10T05:44:59;0.97;;;0.97;;
35961;SDS011;22044;48.298;10.008;2023-05-10T05:47:45;0.87;;;0.87;;
35961;SDS011;22044;48.298;10.008;2023-05-10T05:50:30;1.00;;;1.00;;
35961;SDS011;22044;48.298;10.008;2023-05-10T05:53:16;1.03;;;0.93;;
35961;SDS011;22044;48.298;10.008;2023-05-10T05:56:02;5.60;;;1.10;;
35961;SDS011;22044;48.298;10.008;2023-05-10T05:58:48;0.90;;;0.90;;
35961;SDS011;22044;48.298;10.008;2023-05-10T06:01:35;2.07;;;1.10;;
35961;SDS011;22044;48.298;10.008;2023-05-10T06:04:20;1.67;;;1.17;;
35961;SDS011;22044;48.298;10.008;2023-05-10T06:07:06;1.20;;;1.10;;
35961;SDS011;22044;48.298;10.008;2023-05-10T06:09:51;1.70;;;1.00;;
35961;SDS011;22044;48.298;10.008;2023-05-10T06:12:37;1.27;;;1.00;;
35961;SDS011;22044;48.298;10.008;2023-05-10T06:15:23;0.90;;;0.90;;
35961;SDS011;22044;48.298;10.008;2023-05-10T06:18:10;3.83;;;0.93;;
35961;SDS011;22044;48.298;10.008;2023-05-10T06:20:55;1.03;;;1.00;;
35961;SDS011;22044;48.298;10.008;2023-05-10T06:23:41;2.20;;;1.00;;
35961;SDS011;22044;48.298;10.008;2023-05-10T06:26:27;1.10;;;1.10;;
35961;SDS011;22044;48.298;10.008;2023-05-10T06:29:13;1.20;;;1.00;;
35961;SDS011;22044;48.298;10.008;2023-05-10T06:31:58;3.37;;;1.10;;
35961;SDS011;22044;48.298;10.008;2023-05-10T06:34:45;1.50;;;1.20;;
35961;SDS011;22044;48.298;10.008;2023-05-10T06:37:31;1.80;;;1.00;;
35961;SDS011;22044;48.298;10.008;2023-05-10T06:40:17;1.10;;;1.00;;
35961;SDS011;22044;48.298;10.008;2023-05-10T06:43:03;4.20;;;1.00;;
35961;SDS011;22044;48.298;10.008;2023-05-10T06:45:49;1.87;;;1.30;;
35961;SDS011;22044;48.298;10.008;2023-05-10T06:48:34;1.57;;;1.10;;
35961;SDS011;22044;48.298;10.008;2023-05-10T06:51:22;1.30;;;1.17;;
35961;SDS011;22044;48.298;10.008;2023-05-10T06:54:07;1.53;;;1.00;;
35961;SDS011;22044;48.298;10.008;2023-05-10T06:56:53;1.03;;;0.93;;
35961;SDS011;22044;48.298;10.008;2023-05-10T06:59:38;1.77;;;1.10;;
35961;SDS011;22044;48.298;10.008;2023-05-10T07:02:24;1.43;;;1.10;;
35961;SDS011;22044;48.298;10.008;2023-05-10T07:05:09;1.30;;;1.20;;
35961;SDS011;22044;48.298;10.008;2023-05-10T07:07:56;1.67;;;1.10;;
35961;SDS011;22044;48.298;10.008;2023-05-10T07:10:42;2.47;;;1.30;;
35961;SDS011;22044;48.298;10.008;2023-05-10T07:13:28;1.60;;;1.30;;
35961;SDS011;22044;48.298;10.008;2023-05-10T07:16:13;2.70;;;1.13;;
35961;SDS011;22044;48.298;10.008;2023-05-10T07:18:59;1.33;;;1.23;;
35961;SDS011;22044;48.298;10.008;2023-05-10T07:21:45;1.73;;;1.00;;
35961;SDS011;22044;48.298;10.008;2023-05-10T07:24:33;3.23;;;1.30;;
35961;SDS011;22044;48.298;10.008;2023-05-10T07:27:18;1.40;;;1.30;;
35961;SDS011;22044;48.298;10.008;2023-05-10T07:30:04;2.30;;;1.20;;
35961;SDS011;22044;48.298;10.008;2023-05-10T07:32:51;2.57;;;1.30;;
35961;SDS011;22044;48.298;10.008;2023-05-10T07:35:36;1.67;;;1.20;;
35961;SDS011;22044;48.298;10.008;2023-05-10T07:38:22;1.40;;;1.30;;
35961;SDS011;22044;48.298;10.008;2023-05-10T07:41:10;1.73;;;1.10;;
35961;SDS011;22044;48.298;10.008;2023-05-10T07:43:56;1.97;;;1.20;;
35961;SDS011;22044;48.298;10.008;2023-05-10T07:46:42;2.03;;;1.10;;
35961;SDS011;22044;48.298;10.008;2023-05-10T07:49:28;4.83;;;1.30;;
35961;SDS011;22044;48.298;10.008;2023-05-10T07:52:13;1.20;;;1.03;;
35961;SDS011;22044;48.298;10.008;2023-05-10T07:54:59;1.20;;;1.10;;
35961;SDS011;22044;48.298;10.008;2023-05-10T07:57:46;1.67;;;1.10;;
35961;SDS011;22044;48.298;10.008;2023-05-10T08:00:32;3.47;;;1.00;;
35961;SDS011;22044;48.298;10.008;2023-05-10T08:03:19;1.17;;;1.00;;
35961;SDS011;22044;48.298;10.008;2023-05-10T08:06:04;1.37;;;0.97;;
35961;SDS011;22044;48.298;10.008;2023-05-10T08:08:50;7.47;;;1.00;;
35961;SDS011;22044;48.298;10.008;2023-05-10T08:11:37;1.10;;;1.00;;
35961;SDS011;22044;48.298;10.008;2023-05-10T08:14:26;0.90;;;0.90;;
35961;SDS011;22044;48.298;10.008;2023-05-10T08:17:13;2.27;;;1.23;;
35961;SDS011;22044;48.298;10.008;2023-05-10T08:19:58;1.97;;;1.17;;
35961;SDS011;22044;48.298;10.008;2023-05-10T08:22:44;1.30;;;1.00;;
35961;SDS011;22044;48.298;10.008;2023-05-10T08:25:31;2.00;;;1.30;;
35961;SDS011;22044;48.298;10.008;2023-05-10T08:28:17;2.70;;;1.30;;
35961;SDS011;22044;48.298;10.008;2023-05-10T08:31:04;2.57;;;1.30;;
35961;SDS011;22044;48.298;10.008;2023-05-10T08:33:49;1.87;;;1.10;;
35961;SDS011;22044;48.298;10.008;2023-05-10T08:36:36;1.20;;;1.10;;
35961;SDS011;22044;48.298;10.008;2023-05-10T08:39:22;2.00;;;1.13;;
35961;SDS011;22044;48.298;10.008;2023-05-10T08:42:08;1.40;;;1.20;;
35961;SDS011;22044;48.298;10.008;2023-05-10T08:44:54;1.93;;;1.10;;
35961;SDS011;22044;48.298;10.008;2023-05-10T08:47:43;2.30;;;1.10;;
35961;SDS011;22044;48.298;10.008;2023-05-10T08:50:29;2.07;;;1.27;;
35961;SDS011;22044;48.298;10.008;2023-05-10T08:53:16;1.97;;;1.20;;
35961;SDS011;22044;48.298;10.008;2023-05-10T08:56:02;3.30;;;1.30;;
35961;SDS011;22044;48.298;10.008;2023-05-10T08:58:47;1.03;;;0.93;;
35961;SDS011;22044;48.298;10.008;2023-05-10T09:01:34;1.40;;;0.90;;
35961;SDS011;22044;48.298;10.008;2023-05-10T09:04:22;2.07;;;0.93;;
35961;SDS011;22044;48.298;10.008;2023-05-10T09:07:08;0.80;;;0.80;;
35961;SDS011;22044;48.298;10.008;2023-05-10T09:09:55;1.20;;;0.90;;
35961;SDS011;22044;48.298;10.008;2023-05-10T09:12:41;1.10;;;0.80;;
35961;SDS011;22044;48.298;10.008;2023-05-10T09:15:29;0.80;;;0.80;;
35961;SDS011;22044;48.298;10.008;2023-05-10T09:18:14;0.87;;;0.87;;
35961;SDS011;22044;48.298;10.008;2023-05-10T09:21:01;2.17;;;1.00;;
35961;SDS011;22044;48.298;10.008;2023-05-10T09:23:47;0.70;;;0.70;;
35961;SDS011;22044;48.298;10.008;2023-05-10T09:26:33;0.80;;;0.80;;
35961;SDS011;22044;48.298;10.008;2023-05-10T09:29:20;2.27;;;1.10;;
35961;SDS011;22044;48.298;10.008;2023-05-10T09:32:05;2.10;;;0.83;;
35961;SDS011;22044;48.298;10.008;2023-05-10T09:34:51;1.90;;;0.87;;
35961;SDS011;22044;48.298;10.008;2023-05-10T09:37:40;1.50;;;1.00;;
35961;SDS011;22044;48.298;10.008;2023-05-10T09:40:26;2.90;;;1.07;;
35961;SDS011;22044;48.298;10.008;2023-05-10T09:43:13;1.13;;;0.80;;
35961;SDS011;22044;48.298;10.008;2023-05-10T09:45:58;0.90;;;0.90;;
35961;SDS011;22044;48.298;10.008;2023-05-10T09:48:45;1.03;;;0.80;;
35961;SDS011;22044;48.298;10.008;2023-05-10T09:51:32;1.20;;;0.90;;
35961;SDS011;22044;48.298;10.008;2023-05-10T09:54:21;0.93;;;0.70;;
35961;SDS011;22044;48.298;10.008;2023-05-10T09:57:07;1.23;;;0.83;;
35961;SDS011;22044;48.298;10.008;2023-05-10T10:00:06;0.70;;;0.70;;
35961;SDS011;22044;48.298;10.008;2023-05-10T10:03:00;2.50;;;1.60;;
35961;SDS011;22044;48.298;10.008;2023-05-10T10:05:47;1.83;;;1.00;;
35961;SDS011;22044;48.298;10.008;2023-05-10T10:08:35;0.70;;;0.70;;
35961;SDS011;22044;48.298;10.008;2023-05-10T10:11:22;0.73;;;0.70;;
35961;SDS011;22044;48.298;10.008;2023-05-10T10:14:08;4.07;;;0.90;;
35961;SDS011;22044;48.298;10.008;2023-05-10T10:16:56;3.43;;;1.00;;
35961;SDS011;22044;48.298;10.008;2023-05-10T10:19:41;0.73;;;0.73;;
35961;SDS011;22044;48.298;10.008;2023-05-10T10:22:27;1.63;;;0.80;;
35961;SDS011;22044;48.298;10.008;2023-05-10T10:25:13;0.63;;;0.63;;
35961;SDS011;22044;48.298;10.008;2023-05-10T10:28:10;2.30;;;0.77;;
35961;SDS011;22044;48.298;10.008;2023-05-10T10:31:13;2.20;;;0.70;;
35961;SDS011;22044;48.298;10.008;2023-05-10T10:34:08;1.20;;;0.70;;
35961;SDS011;22044;48.298;10.008;2023-05-10T10:36:55;0.73;;;0.60;;
35961;SDS011;22044;48.298;10.008;2023-05-10T10:39:41;0.83;;;0.70;;
35961;SDS011;22044;48.298;10.008;2023-05-10T10:42:46;0.67;;;0.67;;
35961;SDS011;22044;48.298;10.008;2023-05-10T10:45:38;0.60;;;0.60;;
35961;SDS011;22044;48.298;10.008;2023-05-10T10:48:24;0.60;;;0.60;;
35961;SDS011;22044;48.298;10.008;2023-05-10T10:51:10;0.73;;;0.67;;
35961;SDS011;22044;48.298;10.008;2023-05-10T10:53:59;1.97;;;0.70;;
35961;SDS011;22044;48.298;10.008;2023-05-10T11:00:18;0.70;;;0.70;;
35961;SDS011;22044;48.298;10.008;2023-05-10T11:03:15;0.70;;;0.70;;
35961;SDS011;22044;48.298;10.008;2023-05-10T11:06:03;1.90;;;0.93;;
35961;SDS011;22044;48.298;10.008;2023-05-10T11:08:49;1.60;;;0.90;;
35961;SDS011;22044;48.298;10.008;2023-05-10T11:11:37;0.70;;;0.70;;
35961;SDS011;22044;48.298;10.008;2023-05-10T11:14:34;1.10;;;1.00;;
35961;SDS011;22044;48.298;10.008;2023-05-10T11:17:23;0.70;;;0.70;;
35961;SDS011;22044;48.298;10.008;2023-05-10T11:20:15;0.97;;;0.90;;
35961;SDS011;22044;48.298;10.008;2023-05-10T11:23:11;1.30;;;0.80;;
35961;SDS011;22044;48.298;10.008;2023-05-10T11:25:59;0.80;;;0.80;;
35961;SDS011;22044;48.298;10.008;2023-05-10T11:28:45;1.70;;;0.77;;
35961;SDS011;22044;48.298;10.008;2023-05-10T11:31:32;1.53;;;0.90;;
35961;SDS011;22044;48.298;10.008;2023-05-10T11:34:24;1.13;;;0.83;;
35961;SDS011;22044;48.298;10.008;2023-05-10T11:37:13;2.83;;;0.93;;
35961;SDS011;22044;48.298;10.008;2023-05-10T11:39:58;1.63;;;1.43;;
35961;SDS011;22044;48.298;10.008;2023-05-10T11:42:44;1.13;;;0.70;;
35961;SDS011;22044;48.298;10.008;2023-05-10T11:45:31;1.10;;;0.77;;
35961;SDS011;22044;48.298;10.008;2023-05-10T11:48:17;0.70;;;0.70;;
35961;SDS011;22044;48.298;10.008;2023-05-10T11:51:06;1.20;;;0.77;;
35961;SDS011;22044;48.298;10.008;2023-05-10T11:53:54;1.30;;;1.00;;
35961;SDS011;22044;48.298;10.008;2023-05-10T11:56:43;1.33;;;1.00;;
35961;SDS011;22044;48.298;10.008;2023-05-10T11:59:29;1.37;;;0.97;;
35961;SDS011;22044;48.298;10.008;2023-05-10T12:02:15;1.40;;;0.90;;
35961;SDS011;22044;48.298;10.008;2023-05-10T12:05:01;4.93;;;1.20;;
35961;SDS011;22044;48.298;10.008;2023-05-10T12:07:48;1.73;;;1.10;;
35961;SDS011;22044;48.298;10.008;2023-05-10T12:10:36;1.00;;;1.00;;
35961;SDS011;22044;48.298;10.008;2023-05-10T12:13:21;1.10;;;1.10;;
35961;SDS011;22044;48.298;10.008;2023-05-10T12:16:18;2.57;;;1.03;;
35961;SDS011;22044;48.298;10.008;2023-05-10T12:19:04;1.40;;;1.20;;
35961;SDS011;22044;48.298;10.008;2023-05-10T12:21:50;1.43;;;0.93;;
35961;SDS011;22044;48.298;10.008;2023-05-10T12:24:36;1.70;;;0.90;;
35961;SDS011;22044;48.298;10.008;2023-05-10T12:27:24;1.23;;;0.93;;
35961;SDS011;22044;48.298;10.008;2023-05-10T12:30:09;1.00;;;0.90;;
35961;SDS011;22044;48.298;10.008;2023-05-10T12:32:59;3.67;;;1.27;;
35961;SDS011;22044;48.298;10.008;2023-05-10T12:35:47;1.20;;;1.00;;
35961;SDS011;22044;48.298;10.008;2023-05-10T12:38:34;1.20;;;1.10;;
35961;SDS011;22044;48.298;10.008;2023-05-10T12:41:21;1.20;;;0.93;;
35961;SDS011;22044;48.298;10.008;2023-05-10T12:44:10;2.30;;;1.10;;
35961;SDS011;22044;48.298;10.008;2023-05-10T12:46:56;1.93;;;1.00;;
35961;SDS011;22044;48.298;10.008;2023-05-10T12:49:41;2.00;;;1.10;;
35961;SDS011;22044;48.298;10.008;2023-05-10T12:52:27;0.93;;;0.93;;
35961;SDS011;22044;48.298;10.008;2023-05-10T12:55:13;1.20;;;0.90;;
35961;SDS011;22044;48.298;10.008;2023-05-10T12:57:59;1.60;;;1.00;;
35961;SDS011;22044;48.298;10.008;2023-05-10T13:00:46;1.63;;;1.00;;
35961;SDS011;22044;48.298;10.008;2023-05-10T13:03:33;1.50;;;1.00;;
35961;SDS011;22044;48.298;10.008;2023-05-10T13:06:18;1.50;;;1.40;;
35961;SDS011;22044;48.298;10.008;2023-05-10T13:09:04;1.43;;;1.30;;
35961;SDS011;22044;48.298;10.008;2023-05-10T13:11:50;2.90;;;1.33;;
35961;SDS011;22044;48.298;10.008;2023-05-10T13:14:37;2.10;;;1.30;;
35961;SDS011;22044;48.298;10.008;2023-05-10T13:17:26;2.93;;;1.30;;
35961;SDS011;22044;48.298;10.008;2023-05-10T13:20:12;1.73;;;1.40;;
35961;SDS011;22044;48.298;10.008;2023-05-10T13:22:57;1.67;;;0.93;;
35961;SDS011;22044;48.298;10.008;2023-05-10T13:25:43;1.10;;;1.00;;
35961;SDS011;22044;48.298;10.008;2023-05-10T13:28:29;1.47;;;1.17;;
35961;SDS011;22044;48.298;10.008;2023-05-10T13:31:14;3.00;;;1.30;;
35961;SDS011;22044;48.298;10.008;2023-05-10T13:34:01;1.60;;;1.30;;
35961;SDS011;22044;48.298;10.008;2023-05-10T13:36:48;2.93;;;1.37;;
35961;SDS011;22044;48.298;10.008;2023-05-10T13:39:35;2.37;;;1.40;;
35961;SDS011;22044;48.298;10.008;2023-05-10T13:42:21;3.27;;;1.23;;
35961;SDS011;22044;48.298;10.008;2023-05-10T13:45:07;1.73;;;1.20;;
35961;SDS011;22044;48.298;10.008;2023-05-10T13:47:53;2.07;;;1.30;;
35961;SDS011;22044;48.298;10.008;2023-05-10T13:50:40;2.80;;;1.20;;
35961;SDS011;22044;48.298;10.008;2023-05-10T13:53:25;4.37;;;1.60;;
35961;SDS011;22044;48.298;10.008;2023-05-10T13:56:11;1.63;;;1.10;;
35961;SDS011;22044;48.298;10.008;2023-05-10T13:58:57;2.40;;;1.30;;
35961;SDS011;22044;48.298;10.008;2023-05-10T14:01:42;1.53;;;1.43;;
35961;SDS011;22044;48.298;10.008;2023-05-10T14:04:29;2.07;;;1.60;;
35961;SDS011;22044;48.298;10.008;2023-05-10T14:07:17;2.83;;;1.77;;
35961;SDS011;22044;48.298;10.008;2023-05-10T14:10:03;2.37;;;1.87;;
35961;SDS011;22044;48.298;10.008;2023-05-10T14:12:49;4.87;;;2.00;;
35961;SDS011;22044;48.298;10.008;2023-05-10T14:15:35;2.60;;;1.70;;
35961;SDS011;22044;48.298;10.008;2023-05-10T14:18:20;4.23;;;1.97;;
35961;SDS011;22044;48.298;10.008;2023-05-10T14:21:06;4.07;;;1.97;;
35961;SDS011;22044;48.298;10.008;2023-05-10T14:23:53;3.30;;;3.00;;
35961;SDS011;22044;48.298;10.008;2023-05-10T14:26:39;4.13;;;2.30;;
35961;SDS011;22044;48.298;10.008;2023-05-10T14:29:25;4.30;;;1.80;;
35961;SDS011;22044;48.298;10.008;2023-05-10T14:32:10;2.17;;;1.33;;
35961;SDS011;22044;48.298;10.008;2023-05-10T14:34:56;1.80;;;1.60;;
35961;SDS011;22044;48.298;10.008;2023-05-10T14:37:42;2.60;;;1.40;;
35961;SDS011;22044;48.298;10.008;2023-05-10T14:40:28;1.60;;;1.23;;
35961;SDS011;22044;48.298;10.008;2023-05-10T14:43:14;3.67;;;1.43;;
35961;SDS011;22044;48.298;10.008;2023-05-10T14:45:59;2.93;;;1.20;;
35961;SDS011;22044;48.298;10.008;2023-05-10T14:48:45;4.87;;;1.47;;
35961;SDS011;22044;48.298;10.008;2023-05-10T14:51:31;1.50;;;1.40;;
35961;SDS011;22044;48.298;10.008;2023-05-10T14:54:16;2.53;;;1.47;;
35961;SDS011;22044;48.298;10.008;2023-05-10T14:57:03;3.00;;;1.40;;
35961;SDS011;22044;48.298;10.008;2023-05-10T14:59:49;2.63;;;1.30;;
35961;SDS011;22044;48.298;10.008;2023-05-10T15:02:34;4.43;;;1.53;;
35961;SDS011;22044;48.298;10.008;2023-05-10T15:05:20;3.23;;;1.50;;
35961;SDS011;22044;48.298;10.008;2023-05-10T15:08:05;5.27;;;1.50;;
35961;SDS011;22044;48.298;10.008;2023-05-10T15:10:51;1.97;;;1.23;;
35961;SDS011;22044;48.298;10.008;2023-05-10T15:13:40;3.37;;;1.40;;
35961;SDS011;22044;48.298;10.008;2023-05-10T15:16:25;3.03;;;1.20;;
35961;SDS011;22044;48.298;10.008;2023-05-10T15:19:11;1.10;;;1.00;;
35961;SDS011;22044;48.298;10.008;2023-05-10T15:21:57;1.53;;;1.20;;
35961;SDS011;22044;48.298;10.008;2023-05-10T15:24:42;2.67;;;1.10;;
35961;SDS011;22044;48.298;10.008;2023-05-10T15:27:28;3.00;;;1.20;;
35961;SDS011;22044;48.298;10.008;2023-05-10T15:30:15;1.43;;;1.10;;
35961;SDS011;22044;48.298;10.008;2023-05-10T15:33:00;2.30;;;1.30;;
35961;SDS011;22044;48.298;10.008;2023-05-10T15:35:46;3.80;;;1.53;;
35961;SDS011;22044;48.298;10.008;2023-05-10T15:38:32;2.10;;;1.20;;
35961;SDS011;22044;48.298;10.008;2023-05-10T15:41:17;5.03;;;1.70;;
35961;SDS011;22044;48.298;10.008;2023-05-10T15:44:03;3.70;;;1.70;;
35961;SDS011;22044;48.298;10.008;2023-05-10T15:46:50;2.40;;;1.60;;
35961;SDS011;22044;48.298;10.008;2023-05-10T15:49:36;2.20;;;1.50;;
35961;SDS011;22044;48.298;10.008;2023-05-10T15:52:21;2.83;;;1.50;;
35961;SDS011;22044;48.298;10.008;2023-05-10T15:55:08;2.63;;;1.67;;
35961;SDS011;22044;48.298;10.008;2023-05-10T15:57:55;4.63;;;1.80;;
35961;SDS011;22044;48.298;10.008;2023-05-10T16:00:42;3.73;;;1.60;;
35961;SDS011;22044;48.298;10.008;2023-05-10T16:03:29;4.20;;;1.70;;
35961;SDS011;22044;48.298;10.008;2023-05-10T16:06:14;2.60;;;1.60;;
35961;SDS011;22044;48.298;10.008;2023-05-10T16:09:00;2.37;;;1.60;;
35961;SDS011;22044;48.298;10.008;2023-05-10T16:11:46;4.30;;;1.80;;
35961;SDS011;22044;48.298;10.008;2023-05-10T16:14:31;3.97;;;1.60;;
35961;SDS011;22044;48.298;10.008;2023-05-10T16:17:17;2.87;;;1.70;;
35961;SDS011;22044;48.298;10.008;2023-05-10T16:20:05;2.37;;;1.70;;
35961;SDS011;22044;48.298;10.008;2023-05-10T16:22:51;3.07;;;1.40;;
35961;SDS011;22044;48.298;10.008;2023-05-10T16:25:37;2.73;;;1.60;;
35961;SDS011;22044;48.298;10.008;2023-05-10T16:28:22;3.37;;;1.90;;
35961;SDS011;22044;48.298;10.008;2023-05-10T16:31:08;3.17;;;1.80;;
35961;SDS011;22044;48.298;10.008;2023-05-10T16:33:53;3.70;;;2.03;;
35961;SDS011;22044;48.298;10.008;2023-05-10T16:36:40;2.63;;;1.90;;
35961;SDS011;22044;48.298;10.008;2023-05-10T16:39:26;3.27;;;1.97;;